sensor_id;sensor_type;location;lat;lon;timestamp;pressure;altitude;pressure_sealevel;temperature;humidity
63916;BME280;50094;51.356;-0.196;2023-01-29T00:00:05;102289.91;;;25.45;22.72
63916;BME280;50094;51.356;-0.196;2023-01-29T00:02:32;102284.96;;;25.46;22.70
63916;BME280;50094;51.356;-0.196;2023-01-29T00:04:59;102287.53;;;25.69;22.70
63916;BME280;50094;51.356;-0.196;2023-01-29T00:07:26;102283.09;;;25.68;22.70
63916;BME280;50094;51.356;-0.196;2023-01-29T00:09:53;102281.84;;;25.45;22.70
63916;BME280;50094;51.356;-0.196;2023-01-29T00:12:20;102280.23;;;25.65;22.70
63916;BME280;50094;51.356;-0.196;2023-01-29T00:14:47;102285.32;;;25.63;22.69
63916;BME280;50094;51.356;-0.196;2023-01-29T00:17:13;102287.13;;;25.40;22.69
63916;BME280;50094;51.356;-0.196;2023-01-29T00:19:40;102284.59;;;25.62;22.71
63916;BME280;50094;51.356;-0.196;2023-01-29T00:22:08;102283.07;;;25.86;22.71
63916;BME280;50094;51.356;-0.196;2023-01-29T00:24:35;102282.63;;;25.56;22.71
63916;BME280;50094;51.356;-0.196;2023-01-29T00:27:02;102286.42;;;25.56;22.71
63916;BME280;50094;51.356;-0.196;2023-01-29T00:29:29;102292.72;;;25.56;22.72
63916;BME280;50094;51.356;-0.196;2023-01-29T00:31:56;102295.51;;;25.55;22.73
63916;BME280;50094;51.356;-0.196;2023-01-29T00:34:23;102294.73;;;25.53;22.73
63916;BME280;50094;51.356;-0.196;2023-01-29T00:36:50;102292.82;;;25.31;22.74
63916;BME280;50094;51.356;-0.196;2023-01-29T00:39:16;102289.72;;;25.75;22.75
63916;BME280;50094;51.356;-0.196;2023-01-29T00:41:43;102283.00;;;25.75;22.76
63916;BME280;50094;51.356;-0.196;2023-01-29T00:44:10;102281.00;;;25.53;22.75
63916;BME280;50094;51.356;-0.196;2023-01-29T00:46:38;102283.35;;;25.52;22.76
63916;BME280;50094;51.356;-0.196;2023-01-29T00:49:07;102282.97;;;25.53;22.75
63916;BME280;50094;51.356;-0.196;2023-01-29T00:51:35;102289.64;;;25.50;22.76
63916;BME280;50094;51.356;-0.196;2023-01-29T00:54:04;102290.73;;;25.50;22.77
63916;BME280;50094;51.356;-0.196;2023-01-29T00:56:33;102290.63;;;25.47;22.78
63916;BME280;50094;51.356;-0.196;2023-01-29T00:59:01;102287.14;;;25.46;22.80
63916;BME280;50094;51.356;-0.196;2023-01-29T01:01:29;102283.85;;;25.68;22.80
63916;BME280;50094;51.356;-0.196;2023-01-29T01:03:55;102290.19;;;25.43;22.81
63916;BME280;50094;51.356;-0.196;2023-01-29T01:06:22;102286.58;;;25.43;22.83
63916;BME280;50094;51.356;-0.196;2023-01-29T01:08:49;102281.02;;;25.47;22.83
63916;BME280;50094;51.356;-0.196;2023-01-29T01:11:16;102278.48;;;25.70;22.85
63916;BME280;50094;51.356;-0.196;2023-01-29T01:13:43;102275.65;;;25.45;22.85
63916;BME280;50094;51.356;-0.196;2023-01-29T01:16:13;102271.83;;;25.43;22.84
63916;BME280;50094;51.356;-0.196;2023-01-29T01:18:40;102263.77;;;25.40;22.84
63916;BME280;50094;51.356;-0.196;2023-01-29T01:21:08;102254.25;;;25.61;22.85
63916;BME280;50094;51.356;-0.196;2023-01-29T01:23:35;102251.45;;;25.39;22.82
63916;BME280;50094;51.356;-0.196;2023-01-29T01:26:08;102252.03;;;24.87;22.84
63916;BME280;50094;51.356;-0.196;2023-01-29T01:28:35;102254.10;;;25.37;22.81
63916;BME280;50094;51.356;-0.196;2023-01-29T01:31:08;102253.06;;;25.36;22.82
63916;BME280;50094;51.356;-0.196;2023-01-29T01:33:35;102257.47;;;25.33;22.82
63916;BME280;50094;51.356;-0.196;2023-01-29T01:36:02;102254.29;;;25.29;22.82
63916;BME280;50094;51.356;-0.196;2023-01-29T01:38:29;102251.02;;;25.29;22.84
63916;BME280;50094;51.356;-0.196;2023-01-29T01:40:56;102250.35;;;25.34;22.84
63916;BME280;50094;51.356;-0.196;2023-01-29T01:43:23;102246.74;;;25.56;22.84
63916;BME280;50094;51.356;-0.196;2023-01-29T01:45:51;102245.81;;;25.34;22.85
63916;BME280;50094;51.356;-0.196;2023-01-29T01:48:20;102243.51;;;25.30;22.86
63916;BME280;50094;51.356;-0.196;2023-01-29T01:50:52;102243.94;;;25.53;22.86
63916;BME280;50094;51.356;-0.196;2023-01-29T01:53:22;102246.25;;;25.34;22.87
63916;BME280;50094;51.356;-0.196;2023-01-29T01:55:56;102243.59;;;25.33;22.89
63916;BME280;50094;51.356;-0.196;2023-01-29T01:58:28;102243.40;;;25.53;22.87
63916;BME280;50094;51.356;-0.196;2023-01-29T02:00:58;102238.39;;;25.53;22.87
63916;BME280;50094;51.356;-0.196;2023-01-29T02:03:26;102243.75;;;25.31;22.87
63916;BME280;50094;51.356;-0.196;2023-01-29T02:05:56;102249.50;;;25.31;22.88
63916;BME280;50094;51.356;-0.196;2023-01-29T02:08:30;102253.89;;;25.31;22.89
63916;BME280;50094;51.356;-0.196;2023-01-29T02:10:58;102257.63;;;25.34;22.88
63916;BME280;50094;51.356;-0.196;2023-01-29T02:13:27;102264.57;;;25.31;22.90
63916;BME280;50094;51.356;-0.196;2023-01-29T02:15:54;102267.63;;;25.31;22.90
63916;BME280;50094;51.356;-0.196;2023-01-29T02:18:21;102263.57;;;25.52;22.92
63916;BME280;50094;51.356;-0.196;2023-01-29T02:21:05;102265.13;;;25.30;22.92
63916;BME280;50094;51.356;-0.196;2023-01-29T02:24:26;102259.31;;;25.29;22.93
63916;BME280;50094;51.356;-0.196;2023-01-29T02:27:06;102251.13;;;25.27;22.93
63916;BME280;50094;51.356;-0.196;2023-01-29T02:29:43;102248.85;;;25.26;22.93
63916;BME280;50094;51.356;-0.196;2023-01-29T02:32:21;102246.08;;;25.46;22.92
63916;BME280;50094;51.356;-0.196;2023-01-29T02:35:01;102244.34;;;25.47;22.92
63916;BME280;50094;51.356;-0.196;2023-01-29T02:37:34;102244.42;;;25.01;22.92
63916;BME280;50094;51.356;-0.196;2023-01-29T02:40:11;102244.48;;;25.43;22.92
63916;BME280;50094;51.356;-0.196;2023-01-29T02:42:45;102246.78;;;25.73;22.91
63916;BME280;50094;51.356;-0.196;2023-01-29T02:45:18;102242.47;;;25.45;22.92
63916;BME280;50094;51.356;-0.196;2023-01-29T02:47:55;102241.20;;;25.22;22.92
63916;BME280;50094;51.356;-0.196;2023-01-29T02:50:28;102240.36;;;25.20;22.93
63916;BME280;50094;51.356;-0.196;2023-01-29T02:53:00;102238.42;;;25.42;22.94
63916;BME280;50094;51.356;-0.196;2023-01-29T02:55:34;102243.29;;;25.19;22.97
63916;BME280;50094;51.356;-0.196;2023-01-29T02:58:08;102243.77;;;25.20;22.98
63916;BME280;50094;51.356;-0.196;2023-01-29T03:00:41;102247.43;;;25.21;22.98
63916;BME280;50094;51.356;-0.196;2023-01-29T03:03:12;102249.88;;;25.21;22.98
63916;BME280;50094;51.356;-0.196;2023-01-29T03:05:46;102249.21;;;25.22;22.97
63916;BME280;50094;51.356;-0.196;2023-01-29T03:08:19;102244.88;;;25.44;22.98
63916;BME280;50094;51.356;-0.196;2023-01-29T03:10:51;102242.89;;;25.00;22.98
63916;BME280;50094;51.356;-0.196;2023-01-29T03:13:27;102244.37;;;25.19;22.98
63916;BME280;50094;51.356;-0.196;2023-01-29T03:16:02;102237.21;;;25.40;23.00
63916;BME280;50094;51.356;-0.196;2023-01-29T03:18:32;102230.78;;;25.18;23.01
63916;BME280;50094;51.356;-0.196;2023-01-29T03:21:06;102231.67;;;25.20;23.01
63916;BME280;50094;51.356;-0.196;2023-01-29T03:23:36;102228.15;;;25.37;23.03
63916;BME280;50094;51.356;-0.196;2023-01-29T03:26:04;102227.76;;;25.36;23.04
63916;BME280;50094;51.356;-0.196;2023-01-29T03:28:32;102225.55;;;25.38;23.03
63916;BME280;50094;51.356;-0.196;2023-01-29T03:31:03;102221.93;;;25.36;23.04
63916;BME280;50094;51.356;-0.196;2023-01-29T03:33:37;102215.04;;;25.14;23.06
63916;BME280;50094;51.356;-0.196;2023-01-29T03:36:10;102208.13;;;25.11;23.06
63916;BME280;50094;51.356;-0.196;2023-01-29T03:38:40;102207.53;;;25.37;23.05
63916;BME280;50094;51.356;-0.196;2023-01-29T03:41:12;102203.55;;;25.13;23.06
63916;BME280;50094;51.356;-0.196;2023-01-29T03:43:49;102200.02;;;25.59;23.06
63916;BME280;50094;51.356;-0.196;2023-01-29T03:46:23;102201.11;;;24.87;23.07
63916;BME280;50094;51.356;-0.196;2023-01-29T03:48:56;102201.33;;;25.34;23.07
63916;BME280;50094;51.356;-0.196;2023-01-29T03:51:29;102197.16;;;25.12;23.07
63916;BME280;50094;51.356;-0.196;2023-01-29T03:54:05;102196.99;;;25.12;23.06
63916;BME280;50094;51.356;-0.196;2023-01-29T03:56:42;102194.89;;;23.70;23.07
63916;BME280;50094;51.356;-0.196;2023-01-29T04:02:02;102197.44;;;25.56;22.95
63916;BME280;50094;51.356;-0.196;2023-01-29T04:04:33;102195.63;;;25.29;22.94
63916;BME280;50094;51.356;-0.196;2023-01-29T04:07:07;102195.26;;;24.98;22.96
63916;BME280;50094;51.356;-0.196;2023-01-29T04:09:40;102193.65;;;25.38;22.97
63916;BME280;50094;51.356;-0.196;2023-01-29T04:12:10;102195.40;;;25.12;22.97
63916;BME280;50094;51.356;-0.196;2023-01-29T04:14:38;102194.80;;;25.09;22.99
63916;BME280;50094;51.356;-0.196;2023-01-29T04:17:10;102195.08;;;25.29;23.01
63916;BME280;50094;51.356;-0.196;2023-01-29T04:19:39;102193.17;;;25.10;23.01
63916;BME280;50094;51.356;-0.196;2023-01-29T04:22:09;102186.88;;;25.30;23.02
63916;BME280;50094;51.356;-0.196;2023-01-29T04:24:39;102185.82;;;25.55;23.02
63916;BME280;50094;51.356;-0.196;2023-01-29T04:27:20;102187.49;;;25.03;23.02
63916;BME280;50094;51.356;-0.196;2023-01-29T04:29:59;102189.56;;;25.24;23.02
63916;BME280;50094;51.356;-0.196;2023-01-29T04:32:36;102189.95;;;25.24;23.02
63916;BME280;50094;51.356;-0.196;2023-01-29T04:35:16;102191.53;;;25.02;23.02
63916;BME280;50094;51.356;-0.196;2023-01-29T04:37:57;102190.16;;;25.50;23.02
63916;BME280;50094;51.356;-0.196;2023-01-29T04:40:34;102186.01;;;24.98;23.05
63916;BME280;50094;51.356;-0.196;2023-01-29T04:43:07;102181.55;;;25.05;23.03
63916;BME280;50094;51.356;-0.196;2023-01-29T04:45:46;102178.52;;;25.03;23.02
63916;BME280;50094;51.356;-0.196;2023-01-29T04:48:20;102175.84;;;25.25;23.03
63916;BME280;50094;51.356;-0.196;2023-01-29T04:50:54;102175.42;;;25.22;23.04
63916;BME280;50094;51.356;-0.196;2023-01-29T04:53:27;102175.08;;;25.22;23.03
63916;BME280;50094;51.356;-0.196;2023-01-29T04:56:03;102173.04;;;24.98;23.04
63916;BME280;50094;51.356;-0.196;2023-01-29T04:58:35;102174.58;;;25.20;23.04
63916;BME280;50094;51.356;-0.196;2023-01-29T05:01:07;102176.32;;;24.97;23.04
63916;BME280;50094;51.356;-0.196;2023-01-29T05:03:37;102164.90;;;25.17;23.04
63916;BME280;50094;51.356;-0.196;2023-01-29T05:06:07;102157.40;;;24.93;23.04
63916;BME280;50094;51.356;-0.196;2023-01-29T05:08:36;102154.55;;;25.13;23.06
63916;BME280;50094;51.356;-0.196;2023-01-29T05:11:05;102147.19;;;25.15;23.04
63916;BME280;50094;51.356;-0.196;2023-01-29T05:13:35;102142.93;;;25.17;23.05
63916;BME280;50094;51.356;-0.196;2023-01-29T05:16:08;102135.54;;;25.11;23.05
63916;BME280;50094;51.356;-0.196;2023-01-29T05:18:39;102128.80;;;25.39;23.06
63916;BME280;50094;51.356;-0.196;2023-01-29T05:21:08;102126.46;;;24.90;23.06
63916;BME280;50094;51.356;-0.196;2023-01-29T05:23:35;102121.11;;;25.05;23.08
63916;BME280;50094;51.356;-0.196;2023-01-29T05:26:04;102115.46;;;24.83;23.09
63916;BME280;50094;51.356;-0.196;2023-01-29T05:28:32;102114.36;;;25.06;23.11
63916;BME280;50094;51.356;-0.196;2023-01-29T05:30:59;102117.06;;;25.08;23.11
63916;BME280;50094;51.356;-0.196;2023-01-29T05:33:27;102119.00;;;24.87;23.12
63916;BME280;50094;51.356;-0.196;2023-01-29T05:35:57;102117.80;;;25.14;23.10
63916;BME280;50094;51.356;-0.196;2023-01-29T05:38:24;102118.29;;;25.08;23.12
63916;BME280;50094;51.356;-0.196;2023-01-29T05:40:52;102113.35;;;25.06;23.12
63916;BME280;50094;51.356;-0.196;2023-01-29T05:43:21;102113.79;;;25.08;23.13
63916;BME280;50094;51.356;-0.196;2023-01-29T05:45:53;102113.03;;;25.09;23.13
63916;BME280;50094;51.356;-0.196;2023-01-29T05:48:21;102112.01;;;25.09;23.14
63916;BME280;50094;51.356;-0.196;2023-01-29T05:50:49;102110.67;;;25.35;23.14
63916;BME280;50094;51.356;-0.196;2023-01-29T05:53:17;102109.37;;;25.08;23.15
63916;BME280;50094;51.356;-0.196;2023-01-29T05:55:44;102113.10;;;25.07;23.15
63916;BME280;50094;51.356;-0.196;2023-01-29T05:58:13;102107.09;;;25.08;23.16
63916;BME280;50094;51.356;-0.196;2023-01-29T06:00:40;102100.68;;;25.38;23.13
63916;BME280;50094;51.356;-0.196;2023-01-29T06:03:08;102101.01;;;24.87;23.13
63916;BME280;50094;51.356;-0.196;2023-01-29T06:05:36;102102.84;;;25.06;23.15
63916;BME280;50094;51.356;-0.196;2023-01-29T06:08:04;102104.30;;;25.08;23.16
63916;BME280;50094;51.356;-0.196;2023-01-29T06:10:32;102099.30;;;24.88;23.19
63916;BME280;50094;51.356;-0.196;2023-01-29T06:12:59;102097.98;;;25.17;23.21
63916;BME280;50094;51.356;-0.196;2023-01-29T06:15:26;102096.03;;;25.18;23.23
63916;BME280;50094;51.356;-0.196;2023-01-29T06:17:55;102098.22;;;24.98;23.25
63916;BME280;50094;51.356;-0.196;2023-01-29T06:20:22;102094.71;;;24.96;23.29
63916;BME280;50094;51.356;-0.196;2023-01-29T06:22:49;102090.62;;;25.05;23.29
63916;BME280;50094;51.356;-0.196;2023-01-29T06:25:16;102091.15;;;24.87;23.30
63916;BME280;50094;51.356;-0.196;2023-01-29T06:27:43;102085.96;;;25.38;23.30
63916;BME280;50094;51.356;-0.196;2023-01-29T06:30:11;102086.37;;;25.43;23.30
63916;BME280;50094;51.356;-0.196;2023-01-29T06:32:38;102084.11;;;25.23;23.31
63916;BME280;50094;51.356;-0.196;2023-01-29T06:35:06;102080.47;;;25.27;23.31
63916;BME280;50094;51.356;-0.196;2023-01-29T06:37:33;102083.30;;;25.31;23.31
63916;BME280;50094;51.356;-0.196;2023-01-29T06:40:00;102085.45;;;25.36;23.30
63916;BME280;50094;51.356;-0.196;2023-01-29T06:42:28;102085.27;;;25.42;23.30
63916;BME280;50094;51.356;-0.196;2023-01-29T06:44:55;102085.51;;;25.43;23.30
63916;BME280;50094;51.356;-0.196;2023-01-29T06:47:23;102089.64;;;25.45;23.30
63916;BME280;50094;51.356;-0.196;2023-01-29T06:49:50;102090.55;;;25.49;23.30
63916;BME280;50094;51.356;-0.196;2023-01-29T06:52:17;102091.49;;;25.52;23.30
63916;BME280;50094;51.356;-0.196;2023-01-29T06:54:44;102095.75;;;25.50;23.31
63916;BME280;50094;51.356;-0.196;2023-01-29T06:57:11;102097.94;;;25.32;23.30
63916;BME280;50094;51.356;-0.196;2023-01-29T06:59:39;102094.65;;;25.57;23.31
63916;BME280;50094;51.356;-0.196;2023-01-29T07:02:06;102090.71;;;25.57;23.32
63916;BME280;50094;51.356;-0.196;2023-01-29T07:04:33;102093.45;;;25.62;23.32
63916;BME280;50094;51.356;-0.196;2023-01-29T07:06:59;102089.11;;;25.62;23.33
63916;BME280;50094;51.356;-0.196;2023-01-29T07:09:26;102086.43;;;25.42;23.33
63916;BME280;50094;51.356;-0.196;2023-01-29T07:11:53;102084.43;;;25.89;23.32
63916;BME280;50094;51.356;-0.196;2023-01-29T07:14:20;102083.11;;;25.72;23.32
63916;BME280;50094;51.356;-0.196;2023-01-29T07:16:48;102080.71;;;25.54;23.29
63916;BME280;50094;51.356;-0.196;2023-01-29T07:19:14;102073.47;;;25.51;23.30
63916;BME280;50094;51.356;-0.196;2023-01-29T07:21:42;102071.26;;;25.77;23.30
63916;BME280;50094;51.356;-0.196;2023-01-29T07:24:09;102073.36;;;25.77;23.30
63916;BME280;50094;51.356;-0.196;2023-01-29T07:26:36;102067.32;;;25.79;23.29
63916;BME280;50094;51.356;-0.196;2023-01-29T07:29:04;102069.42;;;25.78;23.29
63916;BME280;50094;51.356;-0.196;2023-01-29T07:31:31;102068.54;;;25.80;23.27
63916;BME280;50094;51.356;-0.196;2023-01-29T07:33:58;102068.83;;;25.86;23.25
63916;BME280;50094;51.356;-0.196;2023-01-29T07:36:25;102065.11;;;25.62;23.26
63916;BME280;50094;51.356;-0.196;2023-01-29T07:38:53;102062.90;;;25.63;23.25
63916;BME280;50094;51.356;-0.196;2023-01-29T07:41:20;102067.03;;;25.88;23.25
63916;BME280;50094;51.356;-0.196;2023-01-29T07:43:48;102063.47;;;25.89;23.25
63916;BME280;50094;51.356;-0.196;2023-01-29T07:46:15;102061.04;;;25.88;23.25
63916;BME280;50094;51.356;-0.196;2023-01-29T07:48:42;102060.22;;;25.72;23.22
63916;BME280;50094;51.356;-0.196;2023-01-29T07:51:08;102061.00;;;25.94;23.22
63916;BME280;50094;51.356;-0.196;2023-01-29T07:53:36;102064.67;;;25.96;23.21
63916;BME280;50094;51.356;-0.196;2023-01-29T07:56:03;102063.08;;;25.74;23.20
63916;BME280;50094;51.356;-0.196;2023-01-29T07:58:31;102064.83;;;25.74;23.20
63916;BME280;50094;51.356;-0.196;2023-01-29T08:00:57;102062.43;;;25.51;23.19
63916;BME280;50094;51.356;-0.196;2023-01-29T08:03:24;102058.75;;;26.02;23.18
63916;BME280;50094;51.356;-0.196;2023-01-29T08:05:51;102059.10;;;26.04;23.17
63916;BME280;50094;51.356;-0.196;2023-01-29T08:08:18;102056.96;;;26.03;23.17
63916;BME280;50094;51.356;-0.196;2023-01-29T08:10:45;102054.65;;;26.02;23.18
63916;BME280;50094;51.356;-0.196;2023-01-29T08:13:12;102050.62;;;26.05;23.17
63916;BME280;50094;51.356;-0.196;2023-01-29T08:15:42;102048.74;;;25.84;23.15
63916;BME280;50094;51.356;-0.196;2023-01-29T08:18:10;102050.44;;;25.85;23.16
63916;BME280;50094;51.356;-0.196;2023-01-29T08:20:37;102051.78;;;26.10;23.13
63916;BME280;50094;51.356;-0.196;2023-01-29T08:23:09;102044.66;;;26.13;23.12
63916;BME280;50094;51.356;-0.196;2023-01-29T08:25:38;102046.20;;;25.91;23.10
63916;BME280;50094;51.356;-0.196;2023-01-29T08:28:05;102048.13;;;26.10;23.11
63916;BME280;50094;51.356;-0.196;2023-01-29T08:30:33;102050.01;;;25.65;23.09
63916;BME280;50094;51.356;-0.196;2023-01-29T08:33:02;102057.07;;;26.15;23.08
63916;BME280;50094;51.356;-0.196;2023-01-29T08:35:30;102050.40;;;26.14;23.07
63916;BME280;50094;51.356;-0.196;2023-01-29T08:37:59;102050.54;;;25.90;23.06
63916;BME280;50094;51.356;-0.196;2023-01-29T08:40:28;102051.45;;;26.12;23.06
63916;BME280;50094;51.356;-0.196;2023-01-29T08:42:57;102051.56;;;25.66;23.05
63916;BME280;50094;51.356;-0.196;2023-01-29T08:45:24;102053.69;;;25.65;23.04
63916;BME280;50094;51.356;-0.196;2023-01-29T08:47:51;102048.35;;;25.63;23.03
63916;BME280;50094;51.356;-0.196;2023-01-29T08:50:18;102050.62;;;25.88;23.02
63916;BME280;50094;51.356;-0.196;2023-01-29T08:52:46;102045.26;;;25.85;23.03
63916;BME280;50094;51.356;-0.196;2023-01-29T08:55:13;102049.47;;;25.83;23.04
63916;BME280;50094;51.356;-0.196;2023-01-29T08:57:40;102046.23;;;26.04;23.04
63916;BME280;50094;51.356;-0.196;2023-01-29T09:00:08;102046.32;;;25.55;23.03
63916;BME280;50094;51.356;-0.196;2023-01-29T09:02:36;102049.73;;;26.00;23.05
63916;BME280;50094;51.356;-0.196;2023-01-29T09:05:04;102054.08;;;26.00;23.04
63916;BME280;50094;51.356;-0.196;2023-01-29T09:07:32;102053.64;;;25.74;23.05
63916;BME280;50094;51.356;-0.196;2023-01-29T09:10:00;102056.59;;;25.73;23.03
63916;BME280;50094;51.356;-0.196;2023-01-29T09:12:28;102055.93;;;25.50;23.01
63916;BME280;50094;51.356;-0.196;2023-01-29T09:14:55;102054.06;;;25.99;23.02
63916;BME280;50094;51.356;-0.196;2023-01-29T09:17:22;102052.13;;;25.98;23.01
63916;BME280;50094;51.356;-0.196;2023-01-29T09:19:50;102047.44;;;25.74;23.01
63916;BME280;50094;51.356;-0.196;2023-01-29T09:22:17;102045.57;;;25.93;23.02
63916;BME280;50094;51.356;-0.196;2023-01-29T09:24:43;102041.60;;;25.89;23.03
63916;BME280;50094;51.356;-0.196;2023-01-29T09:27:10;102038.11;;;25.64;23.06
63916;BME280;50094;51.356;-0.196;2023-01-29T09:29:37;102041.33;;;25.84;23.07
63916;BME280;50094;51.356;-0.196;2023-01-29T09:32:05;102037.16;;;25.57;23.08
63916;BME280;50094;51.356;-0.196;2023-01-29T09:34:33;102034.78;;;25.28;23.10
63916;BME280;50094;51.356;-0.196;2023-01-29T09:36:59;102032.68;;;25.54;23.12
63916;BME280;50094;51.356;-0.196;2023-01-29T09:39:26;102032.43;;;25.73;23.13
63916;BME280;50094;51.356;-0.196;2023-01-29T09:41:58;102036.99;;;25.52;23.13
63916;BME280;50094;51.356;-0.196;2023-01-29T09:44:46;102038.12;;;25.69;23.12
63916;BME280;50094;51.356;-0.196;2023-01-29T09:47:17;102031.98;;;25.68;23.14
63916;BME280;50094;51.356;-0.196;2023-01-29T09:49:47;102027.17;;;25.46;23.13
63916;BME280;50094;51.356;-0.196;2023-01-29T09:52:19;102029.16;;;25.67;23.16
63916;BME280;50094;51.356;-0.196;2023-01-29T09:54:53;102027.92;;;25.67;23.16
63916;BME280;50094;51.356;-0.196;2023-01-29T09:57:26;102031.86;;;25.68;23.17
63916;BME280;50094;51.356;-0.196;2023-01-29T09:59:56;102031.21;;;25.72;23.15
63916;BME280;50094;51.356;-0.196;2023-01-29T10:02:39;102032.83;;;25.71;23.16
63916;BME280;50094;51.356;-0.196;2023-01-29T10:05:24;102031.35;;;25.45;23.18
63916;BME280;50094;51.356;-0.196;2023-01-29T10:08:12;102033.58;;;25.64;23.20
63916;BME280;50094;51.356;-0.196;2023-01-29T10:10:49;102030.67;;;25.67;23.20
63916;BME280;50094;51.356;-0.196;2023-01-29T10:13:27;102028.13;;;25.67;23.22
63916;BME280;50094;51.356;-0.196;2023-01-29T10:16:04;102026.83;;;25.90;23.21
63916;BME280;50094;51.356;-0.196;2023-01-29T10:19:18;102026.22;;;25.46;23.21
63916;BME280;50094;51.356;-0.196;2023-01-29T10:22:00;102027.96;;;25.67;23.22
63916;BME280;50094;51.356;-0.196;2023-01-29T10:24:36;102023.54;;;25.88;23.23
63916;BME280;50094;51.356;-0.196;2023-01-29T10:27:12;102020.05;;;25.44;23.22
63916;BME280;50094;51.356;-0.196;2023-01-29T10:29:41;102019.45;;;25.63;23.23
63916;BME280;50094;51.356;-0.196;2023-01-29T10:32:14;102017.77;;;25.64;23.22
63916;BME280;50094;51.356;-0.196;2023-01-29T10:34:45;102015.62;;;25.63;23.21
63916;BME280;50094;51.356;-0.196;2023-01-29T10:37:17;102013.20;;;25.85;23.23
63916;BME280;50094;51.356;-0.196;2023-01-29T10:39:45;102012.49;;;25.63;23.22
63916;BME280;50094;51.356;-0.196;2023-01-29T10:42:19;102008.15;;;25.63;23.25
63916;BME280;50094;51.356;-0.196;2023-01-29T10:44:56;102008.35;;;25.67;23.24
63916;BME280;50094;51.356;-0.196;2023-01-29T10:47:41;102005.74;;;25.62;23.25
63916;BME280;50094;51.356;-0.196;2023-01-29T10:50:20;102008.59;;;25.61;23.28
63916;BME280;50094;51.356;-0.196;2023-01-29T10:53:04;102003.78;;;25.83;23.29
63916;BME280;50094;51.356;-0.196;2023-01-29T10:55:42;101998.75;;;25.65;23.29
63916;BME280;50094;51.356;-0.196;2023-01-29T10:58:19;101994.65;;;25.65;23.29
63916;BME280;50094;51.356;-0.196;2023-01-29T11:00:48;101990.50;;;25.66;23.30
63916;BME280;50094;51.356;-0.196;2023-01-29T11:03:17;101985.29;;;25.65;23.29
63916;BME280;50094;51.356;-0.196;2023-01-29T11:05:50;101983.67;;;25.63;23.30
63916;BME280;50094;51.356;-0.196;2023-01-29T11:08:24;101972.44;;;25.63;23.31
63916;BME280;50094;51.356;-0.196;2023-01-29T11:11:00;101972.44;;;25.43;23.30
63916;BME280;50094;51.356;-0.196;2023-01-29T11:13:31;101969.22;;;25.63;23.31
63916;BME280;50094;51.356;-0.196;2023-01-29T11:16:03;101962.95;;;25.62;23.31
63916;BME280;50094;51.356;-0.196;2023-01-29T11:18:49;101958.33;;;25.39;23.31
63916;BME280;50094;51.356;-0.196;2023-01-29T11:21:17;101956.50;;;25.62;23.31
63916;BME280;50094;51.356;-0.196;2023-01-29T11:23:43;101948.16;;;25.68;23.29
63916;BME280;50094;51.356;-0.196;2023-01-29T11:26:13;101941.29;;;25.59;23.31
63916;BME280;50094;51.356;-0.196;2023-01-29T11:28:44;101937.55;;;25.56;23.35
63916;BME280;50094;51.356;-0.196;2023-01-29T11:31:17;101927.78;;;25.58;23.37
63916;BME280;50094;51.356;-0.196;2023-01-29T11:33:46;101925.35;;;25.51;23.41
63916;BME280;50094;51.356;-0.196;2023-01-29T11:36:29;101920.14;;;25.52;23.45
63916;BME280;50094;51.356;-0.196;2023-01-29T11:39:16;101914.99;;;25.49;23.47
63916;BME280;50094;51.356;-0.196;2023-01-29T11:41:48;101912.71;;;25.52;23.48
63916;BME280;50094;51.356;-0.196;2023-01-29T11:44:20;101909.11;;;25.53;23.49
63916;BME280;50094;51.356;-0.196;2023-01-29T11:46:49;101901.04;;;25.61;23.47
63916;BME280;50094;51.356;-0.196;2023-01-29T11:49:24;101891.58;;;25.60;23.45
63916;BME280;50094;51.356;-0.196;2023-01-29T11:51:55;101890.48;;;25.52;23.48
63916;BME280;50094;51.356;-0.196;2023-01-29T11:54:28;101886.70;;;25.79;23.47
63916;BME280;50094;51.356;-0.196;2023-01-29T11:56:57;101886.91;;;25.52;23.47
63916;BME280;50094;51.356;-0.196;2023-01-29T11:59:34;101883.04;;;25.32;23.48
63916;BME280;50094;51.356;-0.196;2023-01-29T12:02:15;101880.89;;;25.72;23.49
63916;BME280;50094;51.356;-0.196;2023-01-29T12:04:45;101874.16;;;25.51;23.49
63916;BME280;50094;51.356;-0.196;2023-01-29T12:07:15;101866.72;;;25.58;23.48
63916;BME280;50094;51.356;-0.196;2023-01-29T12:09:49;101864.54;;;25.45;23.52
63916;BME280;50094;51.356;-0.196;2023-01-29T12:12:38;101861.58;;;25.49;23.53
63916;BME280;50094;51.356;-0.196;2023-01-29T12:15:17;101857.70;;;25.48;23.55
63916;BME280;50094;51.356;-0.196;2023-01-29T12:17:52;101846.69;;;25.48;23.58
63916;BME280;50094;51.356;-0.196;2023-01-29T12:20:25;101835.18;;;25.64;23.60
63916;BME280;50094;51.356;-0.196;2023-01-29T12:23:00;101830.72;;;25.64;23.62
63916;BME280;50094;51.356;-0.196;2023-01-29T12:25:40;101826.59;;;25.68;23.63
63916;BME280;50094;51.356;-0.196;2023-01-29T12:28:20;101830.65;;;25.73;23.65
63916;BME280;50094;51.356;-0.196;2023-01-29T12:30:54;101820.46;;;25.48;23.66
63916;BME280;50094;51.356;-0.196;2023-01-29T12:33:35;101812.42;;;25.46;23.68
63916;BME280;50094;51.356;-0.196;2023-01-29T12:36:11;101806.54;;;25.48;23.68
63916;BME280;50094;51.356;-0.196;2023-01-29T12:38:43;101799.58;;;25.54;23.72
63916;BME280;50094;51.356;-0.196;2023-01-29T12:41:25;101794.88;;;25.48;23.73
63916;BME280;50094;51.356;-0.196;2023-01-29T12:43:57;101784.63;;;25.49;23.75
63916;BME280;50094;51.356;-0.196;2023-01-29T12:46:29;101783.34;;;25.71;23.77
63916;BME280;50094;51.356;-0.196;2023-01-29T12:49:00;101778.11;;;25.46;23.79
63916;BME280;50094;51.356;-0.196;2023-01-29T12:51:34;101776.13;;;25.49;23.80
63916;BME280;50094;51.356;-0.196;2023-01-29T12:54:05;101771.91;;;25.51;23.81
63916;BME280;50094;51.356;-0.196;2023-01-29T12:56:37;101767.39;;;25.54;23.82
63916;BME280;50094;51.356;-0.196;2023-01-29T12:59:13;101767.17;;;25.47;23.84
63916;BME280;50094;51.356;-0.196;2023-01-29T13:01:45;101758.37;;;25.46;23.86